Norway, MI (49870)

08:23 AM CDT on Οκτώβριος 25, 2014 (GMT -0500)
Downtown | Change Station
CLOSE
Current Station
Personal Weather Stations
Location: Norway, MI
Elevation: 942 ft
Nearby Weather Stations

Elev 942 ft 45.79 °N, 87.91 °W | Updated 1 second ago

Αίθριος
Αίθριος
53.6 ° F
Feels Like 53.6 ° F
N
11.5
Ανεμος Μεταβλητός Ανεμος from ΔΒΔ
Gusts 11.5 mph

Σήμερα
High -- | Low -- ° F
--% Chance of Precip.
Yesterday
High -- | Low -- ° F
Precip. -- in
7:21 AM 5:48 PM
Μηνίσκος, 3% visible
Ατμοσφαιρική Πίεση 29.76 in
Ορατότητα 10.0 Μίλια
Σύννεφα Αίθριος
Σημείο Δρόσου 40 ° F
Υγρασία 61%
Rainfall 0.00 in
Snow Depth Not available.
Υπεριώδης ακτινοβολία (UV) 0 out of 12
Pollen 1.90 out of 12
Air Quality Not available.
Flu Activity Sporadic
METAR KIMT 251254Z AUTO 29010KT 10SM CLR 11/03 A2974 RMK AO2 SLP077 T01060028

More Conditions Fewer Conditions

Ατμοσφαιρική Πίεση 29.76 in
Ορατότητα 10.0 Μίλια
Σύννεφα Αίθριος
Σημείο Δρόσου 40 ° F
Υγρασία 61%
Rainfall 0.00 in
Snow Depth Not available.
Υπεριώδης ακτινοβολία (UV) 0 out of 12
Pollen 1.90 out of 12
Air Quality Not available.
Flu Activity Sporadic
METAR KIMT 251254Z AUTO 29010KT 10SM CLR 11/03 A2974 RMK AO2 SLP077 T01060028

More Conditions Fewer Conditions

10-Day Weather Forecast

Almanac

Αστρονομία

Oct. 25, 2014 Rise Set
Actual Time 7:21 AM CDT 5:48 PM CDT
Civil Twilight 6:51 AM CDT 6:19 PM CDT
Nautical Twilight 6:16 AM CDT 6:54 PM CDT
Astronomical Twilight 5:41 AM CDT 7:28 PM CDT
Moon 9:04 AM CDT 7:07 PM CDT
Length Of Visible Light 11h 27m
Διάρκεια ημέρας
10h 26m
Tomorrow will be 3m 0s shorter.
Μηνίσκος, 3% of the Moon is Illuminated
Σήμερα
Μηνίσκος
Oct 30
Πρώτο τέταρτο
Nov 6
Πανσέληνος
Nov 14
Τελευταίο τέταρτο
Nov 22
New

Today's Extremes

State Highs State Lows

Community

WunderPhotos

Upload Photos

1,764,829 photos uploaded!

Nearby

Snow Depth

Station Depth Elevation
No new snow has been reported.

Earthquake Activity

City Distance Mag. Time & Date
No recent earthquake activity has been reported nearby.
Minimum magnitude displayed is 2.5.

Coastal Water Temperatures

Τοποθεσία Θερμοκρασία
No Stations Reporting

Nearby Weather Stations